sensor_id;sensor_type;location;lat;lon;timestamp;P1;durP1;ratioP1;P2;durP2;ratioP2
39846;SDS011;25517;52.422;10.782;2023-04-28T00:01:24;6.35;;;2.70;;
39846;SDS011;25517;52.422;10.782;2023-04-28T00:03:50;5.63;;;2.90;;
39846;SDS011;25517;52.422;10.782;2023-04-28T00:06:15;4.60;;;2.58;;
39846;SDS011;25517;52.422;10.782;2023-04-28T00:08:41;10.45;;;3.00;;
39846;SDS011;25517;52.422;10.782;2023-04-28T00:11:09;4.43;;;2.97;;
39846;SDS011;25517;52.422;10.782;2023-04-28T00:13:35;5.32;;;2.75;;
39846;SDS011;25517;52.422;10.782;2023-04-28T00:16:01;4.32;;;2.30;;
39846;SDS011;25517;52.422;10.782;2023-04-28T00:18:27;3.50;;;2.65;;
39846;SDS011;25517;52.422;10.782;2023-04-28T00:20:53;4.05;;;2.70;;
39846;SDS011;25517;52.422;10.782;2023-04-28T00:23:19;4.93;;;2.63;;
39846;SDS011;25517;52.422;10.782;2023-04-28T00:25:49;3.85;;;2.70;;
39846;SDS011;25517;52.422;10.782;2023-04-28T00:28:19;2.97;;;2.03;;
39846;SDS011;25517;52.422;10.782;2023-04-28T00:30:45;6.20;;;2.42;;
39846;SDS011;25517;52.422;10.782;2023-04-28T00:33:11;3.58;;;2.25;;
39846;SDS011;25517;52.422;10.782;2023-04-28T00:35:37;6.90;;;2.60;;
39846;SDS011;25517;52.422;10.782;2023-04-28T00:38:03;5.57;;;2.58;;
39846;SDS011;25517;52.422;10.782;2023-04-28T00:40:35;3.50;;;2.25;;
39846;SDS011;25517;52.422;10.782;2023-04-28T00:43:02;3.47;;;2.30;;
39846;SDS011;25517;52.422;10.782;2023-04-28T00:45:28;3.30;;;2.20;;
39846;SDS011;25517;52.422;10.782;2023-04-28T00:47:54;5.70;;;2.00;;
39846;SDS011;25517;52.422;10.782;2023-04-28T00:50:23;3.97;;;2.83;;
39846;SDS011;25517;52.422;10.782;2023-04-28T00:52:50;4.82;;;2.70;;
39846;SDS011;25517;52.422;10.782;2023-04-28T00:55:16;5.97;;;2.42;;
39846;SDS011;25517;52.422;10.782;2023-04-28T00:57:42;3.63;;;2.13;;
39846;SDS011;25517;52.422;10.782;2023-04-28T01:00:08;3.67;;;2.33;;
39846;SDS011;25517;52.422;10.782;2023-04-28T01:02:34;4.95;;;2.50;;
39846;SDS011;25517;52.422;10.782;2023-04-28T01:05:00;4.97;;;2.85;;
39846;SDS011;25517;52.422;10.782;2023-04-28T01:07:27;3.72;;;2.28;;
39846;SDS011;25517;52.422;10.782;2023-04-28T01:09:53;6.82;;;2.40;;
39846;SDS011;25517;52.422;10.782;2023-04-28T01:12:19;7.70;;;3.15;;
39846;SDS011;25517;52.422;10.782;2023-04-28T01:14:45;4.75;;;2.28;;
39846;SDS011;25517;52.422;10.782;2023-04-28T01:17:10;3.20;;;2.50;;
39846;SDS011;25517;52.422;10.782;2023-04-28T01:19:36;5.97;;;2.45;;
39846;SDS011;25517;52.422;10.782;2023-04-28T01:22:02;5.00;;;2.63;;
39846;SDS011;25517;52.422;10.782;2023-04-28T01:24:28;6.18;;;3.40;;
39846;SDS011;25517;52.422;10.782;2023-04-28T01:26:54;4.15;;;3.10;;
39846;SDS011;25517;52.422;10.782;2023-04-28T01:29:20;4.65;;;2.90;;
39846;SDS011;25517;52.422;10.782;2023-04-28T01:31:45;3.78;;;2.50;;
39846;SDS011;25517;52.422;10.782;2023-04-28T01:34:11;7.63;;;3.25;;
39846;SDS011;25517;52.422;10.782;2023-04-28T01:36:36;6.88;;;3.47;;
39846;SDS011;25517;52.422;10.782;2023-04-28T01:39:02;3.63;;;2.83;;
39846;SDS011;25517;52.422;10.782;2023-04-28T01:41:28;5.88;;;2.97;;
39846;SDS011;25517;52.422;10.782;2023-04-28T01:43:54;6.70;;;3.20;;
39846;SDS011;25517;52.422;10.782;2023-04-28T01:46:19;7.90;;;3.40;;
39846;SDS011;25517;52.422;10.782;2023-04-28T01:48:45;9.55;;;3.90;;
39846;SDS011;25517;52.422;10.782;2023-04-28T01:51:11;8.55;;;3.53;;
39846;SDS011;25517;52.422;10.782;2023-04-28T01:53:37;4.43;;;3.28;;
39846;SDS011;25517;52.422;10.782;2023-04-28T01:56:02;5.10;;;3.40;;
39846;SDS011;25517;52.422;10.782;2023-04-28T01:58:28;5.70;;;2.97;;
39846;SDS011;25517;52.422;10.782;2023-04-28T02:00:53;6.65;;;3.28;;
39846;SDS011;25517;52.422;10.782;2023-04-28T02:03:19;7.47;;;3.85;;
39846;SDS011;25517;52.422;10.782;2023-04-28T02:05:45;5.85;;;3.30;;
39846;SDS011;25517;52.422;10.782;2023-04-28T02:08:10;10.00;;;3.63;;
39846;SDS011;25517;52.422;10.782;2023-04-28T02:10:36;11.00;;;4.32;;
39846;SDS011;25517;52.422;10.782;2023-04-28T02:13:01;9.20;;;3.92;;
39846;SDS011;25517;52.422;10.782;2023-04-28T02:15:27;8.43;;;4.15;;
39846;SDS011;25517;52.422;10.782;2023-04-28T02:17:52;8.05;;;3.97;;
39846;SDS011;25517;52.422;10.782;2023-04-28T02:20:18;5.07;;;3.50;;
39846;SDS011;25517;52.422;10.782;2023-04-28T02:22:43;10.88;;;5.05;;
39846;SDS011;25517;52.422;10.782;2023-04-28T02:25:09;6.60;;;3.97;;
39846;SDS011;25517;52.422;10.782;2023-04-28T02:27:35;9.07;;;3.58;;
39846;SDS011;25517;52.422;10.782;2023-04-28T02:30:03;7.18;;;3.60;;
39846;SDS011;25517;52.422;10.782;2023-04-28T02:32:30;7.03;;;4.15;;
39846;SDS011;25517;52.422;10.782;2023-04-28T02:34:56;6.82;;;4.20;;
39846;SDS011;25517;52.422;10.782;2023-04-28T02:37:21;6.38;;;4.03;;
39846;SDS011;25517;52.422;10.782;2023-04-28T02:39:47;4.80;;;3.47;;
39846;SDS011;25517;52.422;10.782;2023-04-28T02:42:13;6.85;;;3.78;;
39846;SDS011;25517;52.422;10.782;2023-04-28T02:44:38;6.15;;;3.75;;
39846;SDS011;25517;52.422;10.782;2023-04-28T02:47:04;6.43;;;3.83;;
39846;SDS011;25517;52.422;10.782;2023-04-28T02:49:30;8.70;;;3.90;;
39846;SDS011;25517;52.422;10.782;2023-04-28T02:51:55;7.70;;;4.35;;
39846;SDS011;25517;52.422;10.782;2023-04-28T02:54:21;6.65;;;4.07;;
39846;SDS011;25517;52.422;10.782;2023-04-28T02:56:51;4.53;;;3.95;;
39846;SDS011;25517;52.422;10.782;2023-04-28T02:59:21;5.13;;;3.45;;
39846;SDS011;25517;52.422;10.782;2023-04-28T03:01:47;5.88;;;3.83;;
39846;SDS011;25517;52.422;10.782;2023-04-28T03:04:13;6.10;;;4.55;;
39846;SDS011;25517;52.422;10.782;2023-04-28T03:06:39;6.70;;;3.92;;
39846;SDS011;25517;52.422;10.782;2023-04-28T03:09:05;11.20;;;4.22;;
39846;SDS011;25517;52.422;10.782;2023-04-28T03:11:31;7.03;;;4.15;;
39846;SDS011;25517;52.422;10.782;2023-04-28T03:13:56;5.80;;;4.22;;
39846;SDS011;25517;52.422;10.782;2023-04-28T03:16:22;9.95;;;4.15;;
39846;SDS011;25517;52.422;10.782;2023-04-28T03:18:47;4.25;;;3.72;;
39846;SDS011;25517;52.422;10.782;2023-04-28T03:21:13;7.35;;;4.07;;
39846;SDS011;25517;52.422;10.782;2023-04-28T03:23:38;11.05;;;4.53;;
39846;SDS011;25517;52.422;10.782;2023-04-28T03:26:04;7.75;;;4.75;;
39846;SDS011;25517;52.422;10.782;2023-04-28T03:28:30;8.30;;;4.75;;
39846;SDS011;25517;52.422;10.782;2023-04-28T03:30:55;11.68;;;5.35;;
39846;SDS011;25517;52.422;10.782;2023-04-28T03:33:21;8.40;;;4.00;;
39846;SDS011;25517;52.422;10.782;2023-04-28T03:35:47;7.05;;;4.03;;
39846;SDS011;25517;52.422;10.782;2023-04-28T03:38:12;9.13;;;4.50;;
39846;SDS011;25517;52.422;10.782;2023-04-28T03:40:38;7.35;;;4.53;;
39846;SDS011;25517;52.422;10.782;2023-04-28T03:43:04;6.47;;;4.20;;
39846;SDS011;25517;52.422;10.782;2023-04-28T03:45:29;8.75;;;4.30;;
39846;SDS011;25517;52.422;10.782;2023-04-28T03:47:55;12.93;;;4.95;;
39846;SDS011;25517;52.422;10.782;2023-04-28T03:50:20;8.63;;;4.85;;
39846;SDS011;25517;52.422;10.782;2023-04-28T03:52:46;10.80;;;5.22;;
39846;SDS011;25517;52.422;10.782;2023-04-28T03:55:12;10.93;;;4.88;;
39846;SDS011;25517;52.422;10.782;2023-04-28T03:57:37;23.80;;;5.35;;
39846;SDS011;25517;52.422;10.782;2023-04-28T04:00:03;8.68;;;5.05;;
39846;SDS011;25517;52.422;10.782;2023-04-28T04:02:29;11.45;;;4.82;;
39846;SDS011;25517;52.422;10.782;2023-04-28T04:04:55;11.25;;;5.32;;
39846;SDS011;25517;52.422;10.782;2023-04-28T04:07:21;10.50;;;5.25;;
39846;SDS011;25517;52.422;10.782;2023-04-28T04:09:47;6.90;;;5.20;;
39846;SDS011;25517;52.422;10.782;2023-04-28T04:12:12;7.93;;;4.97;;
39846;SDS011;25517;52.422;10.782;2023-04-28T04:14:38;15.35;;;5.40;;
39846;SDS011;25517;52.422;10.782;2023-04-28T04:17:04;9.18;;;4.60;;
39846;SDS011;25517;52.422;10.782;2023-04-28T04:19:30;10.32;;;5.00;;
39846;SDS011;25517;52.422;10.782;2023-04-28T04:21:55;8.85;;;5.57;;
39846;SDS011;25517;52.422;10.782;2023-04-28T04:24:21;7.82;;;5.32;;
39846;SDS011;25517;52.422;10.782;2023-04-28T04:26:46;14.90;;;5.95;;
39846;SDS011;25517;52.422;10.782;2023-04-28T04:29:12;10.73;;;5.20;;
39846;SDS011;25517;52.422;10.782;2023-04-28T04:31:37;8.82;;;5.00;;
39846;SDS011;25517;52.422;10.782;2023-04-28T04:34:02;7.03;;;4.85;;
39846;SDS011;25517;52.422;10.782;2023-04-28T04:36:29;10.32;;;5.65;;
39846;SDS011;25517;52.422;10.782;2023-04-28T04:38:54;13.07;;;5.13;;
39846;SDS011;25517;52.422;10.782;2023-04-28T04:41:20;8.90;;;5.10;;
39846;SDS011;25517;52.422;10.782;2023-04-28T04:43:45;9.25;;;5.75;;
39846;SDS011;25517;52.422;10.782;2023-04-28T04:46:11;7.50;;;5.15;;
39846;SDS011;25517;52.422;10.782;2023-04-28T04:48:37;12.52;;;5.40;;
39846;SDS011;25517;52.422;10.782;2023-04-28T04:51:03;8.93;;;5.80;;
39846;SDS011;25517;52.422;10.782;2023-04-28T04:53:28;13.65;;;5.72;;
39846;SDS011;25517;52.422;10.782;2023-04-28T04:55:54;12.80;;;5.80;;
39846;SDS011;25517;52.422;10.782;2023-04-28T04:58:19;10.30;;;5.75;;
39846;SDS011;25517;52.422;10.782;2023-04-28T05:00:45;8.68;;;5.88;;
39846;SDS011;25517;52.422;10.782;2023-04-28T05:03:11;10.93;;;6.30;;
39846;SDS011;25517;52.422;10.782;2023-04-28T05:05:36;10.05;;;5.82;;
39846;SDS011;25517;52.422;10.782;2023-04-28T05:08:02;12.25;;;5.43;;
39846;SDS011;25517;52.422;10.782;2023-04-28T05:10:27;11.20;;;5.80;;
39846;SDS011;25517;52.422;10.782;2023-04-28T05:12:53;9.68;;;5.00;;
39846;SDS011;25517;52.422;10.782;2023-04-28T05:15:19;14.38;;;6.25;;
39846;SDS011;25517;52.422;10.782;2023-04-28T05:17:44;11.13;;;5.65;;
39846;SDS011;25517;52.422;10.782;2023-04-28T05:20:10;13.45;;;5.50;;
39846;SDS011;25517;52.422;10.782;2023-04-28T05:22:35;12.20;;;6.05;;
39846;SDS011;25517;52.422;10.782;2023-04-28T05:25:01;9.07;;;5.20;;
39846;SDS011;25517;52.422;10.782;2023-04-28T05:27:27;12.75;;;5.75;;
39846;SDS011;25517;52.422;10.782;2023-04-28T05:29:52;7.57;;;5.00;;
39846;SDS011;25517;52.422;10.782;2023-04-28T05:32:18;14.35;;;5.97;;
39846;SDS011;25517;52.422;10.782;2023-04-28T05:38:06;12.02;;;5.88;;
39846;SDS011;25517;52.422;10.782;2023-04-28T05:40:32;17.00;;;6.20;;
39846;SDS011;25517;52.422;10.782;2023-04-28T05:42:57;11.48;;;6.35;;
39846;SDS011;25517;52.422;10.782;2023-04-28T05:45:23;22.17;;;7.82;;
39846;SDS011;25517;52.422;10.782;2023-04-28T05:47:48;11.27;;;6.45;;
39846;SDS011;25517;52.422;10.782;2023-04-28T05:50:14;11.70;;;5.90;;
39846;SDS011;25517;52.422;10.782;2023-04-28T05:52:40;10.27;;;6.03;;
39846;SDS011;25517;52.422;10.782;2023-04-28T05:55:06;12.13;;;6.45;;
39846;SDS011;25517;52.422;10.782;2023-04-28T05:57:32;11.48;;;5.65;;
39846;SDS011;25517;52.422;10.782;2023-04-28T05:59:58;8.55;;;5.65;;
